sensor_id;sensor_type;location;lat;lon;timestamp;pressure;altitude;pressure_sealevel;temperature;humidity
5877;BME280;2964;42.144;24.730;2023-09-30T00:01:55;146584.97;;;20.22;65.08
5877;BME280;2964;42.144;24.730;2023-09-30T00:04:22;146572.31;;;20.17;64.99
5877;BME280;2964;42.144;24.730;2023-09-30T00:06:49;146541.97;;;20.05;65.46
5877;BME280;2964;42.144;24.730;2023-09-30T00:09:15;146517.91;;;19.95;66.54
5877;BME280;2964;42.144;24.730;2023-09-30T00:11:43;146486.28;;;19.82;67.62
5877;BME280;2964;42.144;24.730;2023-09-30T00:14:10;146487.56;;;19.83;68.44
5877;BME280;2964;42.144;24.730;2023-09-30T00:16:37;146466.06;;;19.74;68.28
5877;BME280;2964;42.144;24.730;2023-09-30T00:19:03;146464.81;;;19.74;68.36
5877;BME280;2964;42.144;24.730;2023-09-30T00:21:30;146455.91;;;19.70;68.79
5877;BME280;2964;42.144;24.730;2023-09-30T00:23:57;146491.31;;;19.84;67.63
5877;BME280;2964;42.144;24.730;2023-09-30T00:26:23;146487.56;;;19.83;67.67
5877;BME280;2964;42.144;24.730;2023-09-30T00:28:51;146502.75;;;19.89;66.70
5877;BME280;2964;42.144;24.730;2023-09-30T00:31:18;146483.78;;;19.81;66.74
5877;BME280;2964;42.144;24.730;2023-09-30T00:33:45;146500.19;;;19.88;66.75
5877;BME280;2964;42.144;24.730;2023-09-30T00:36:13;146479.97;;;19.80;66.96
5877;BME280;2964;42.144;24.730;2023-09-30T00:38:39;146504.00;;;19.90;66.18
5877;BME280;2964;42.144;24.730;2023-09-30T00:41:06;146486.28;;;19.82;66.30
5877;BME280;2964;42.144;24.730;2023-09-30T00:43:33;146507.78;;;19.91;65.99
5877;BME280;2964;42.144;24.730;2023-09-30T00:46:06;146448.31;;;19.67;66.54
5877;BME280;2964;42.144;24.730;2023-09-30T00:48:33;146469.88;;;19.76;66.94
5877;BME280;2964;42.144;24.730;2023-09-30T00:51:00;146445.75;;;19.66;66.91
5877;BME280;2964;42.144;24.730;2023-09-30T00:53:27;146391.38;;;19.44;66.95
5877;BME280;2964;42.144;24.730;2023-09-30T00:55:55;146436.94;;;19.62;66.69
5877;BME280;2964;42.144;24.730;2023-09-30T00:58:23;146498.94;;;19.88;66.10
5877;BME280;2964;42.144;24.730;2023-09-30T01:00:55;146507.78;;;19.91;65.80
5877;BME280;2964;42.144;24.730;2023-09-30T01:03:24;146460.97;;;19.72;67.36
5877;BME280;2964;42.144;24.730;2023-09-30T01:05:51;146454.59;;;19.70;67.82
5877;BME280;2964;42.144;24.730;2023-09-30T01:08:18;146448.31;;;19.67;67.98
5877;BME280;2964;42.144;24.730;2023-09-30T01:10:46;146430.59;;;19.60;67.23
5877;BME280;2964;42.144;24.730;2023-09-30T01:13:13;146433.13;;;19.61;66.80
5877;BME280;2964;42.144;24.730;2023-09-30T01:15:40;146429.34;;;19.59;67.16
5877;BME280;2964;42.144;24.730;2023-09-30T01:18:07;146435.63;;;19.62;67.17
5877;BME280;2964;42.144;24.730;2023-09-30T01:20:35;146438.19;;;19.63;67.61
5877;BME280;2964;42.144;24.730;2023-09-30T01:23:03;146415.44;;;19.54;67.50
5877;BME280;2964;42.144;24.730;2023-09-30T01:25:30;146406.56;;;19.50;67.66
5877;BME280;2964;42.144;24.730;2023-09-30T01:27:58;146395.16;;;19.45;67.01
5877;BME280;2964;42.144;24.730;2023-09-30T01:30:31;146398.97;;;19.47;68.52
5877;BME280;2964;42.144;24.730;2023-09-30T01:32:58;146264.97;;;18.93;69.20
5877;BME280;2964;42.144;24.730;2023-09-30T01:35:25;146367.34;;;19.34;69.58
5877;BME280;2964;42.144;24.730;2023-09-30T01:37:52;146350.94;;;19.27;69.50
5877;BME280;2964;42.144;24.730;2023-09-30T01:40:20;146333.25;;;19.20;68.90
5877;BME280;2964;42.144;24.730;2023-09-30T01:42:47;146401.53;;;19.48;67.51
5877;BME280;2964;42.144;24.730;2023-09-30T01:45:14;146392.66;;;19.44;67.27
5877;BME280;2964;42.144;24.730;2023-09-30T01:47:41;146339.53;;;19.23;68.54
5877;BME280;2964;42.144;24.730;2023-09-30T01:50:08;146323.09;;;19.16;69.90
5877;BME280;2964;42.144;24.730;2023-09-30T01:52:35;146296.56;;;19.05;69.79
5877;BME280;2964;42.144;24.730;2023-09-30T01:55:02;146309.19;;;19.10;69.48
5877;BME280;2964;42.144;24.730;2023-09-30T01:57:30;146278.88;;;18.98;70.90
5877;BME280;2964;42.144;24.730;2023-09-30T01:59:57;146305.44;;;19.09;69.92
5877;BME280;2964;42.144;24.730;2023-09-30T02:02:23;146281.38;;;18.99;69.53
5877;BME280;2964;42.144;24.730;2023-09-30T02:04:51;146324.38;;;19.17;68.54
5877;BME280;2964;42.144;24.730;2023-09-30T02:07:18;146244.72;;;18.84;69.98
5877;BME280;2964;42.144;24.730;2023-09-30T02:09:45;146267.47;;;18.94;70.27
5877;BME280;2964;42.144;24.730;2023-09-30T02:12:12;146244.72;;;18.84;70.90
5877;BME280;2964;42.144;24.730;2023-09-30T02:14:40;146202.97;;;18.67;71.02
5877;BME280;2964;42.144;24.730;2023-09-30T02:17:06;146202.97;;;18.67;71.53
5877;BME280;2964;42.144;24.730;2023-09-30T02:19:34;146190.31;;;18.62;72.18
5877;BME280;2964;42.144;24.730;2023-09-30T02:22:01;146177.69;;;18.57;72.80
5877;BME280;2964;42.144;24.730;2023-09-30T02:24:28;146157.47;;;18.49;72.31
5877;BME280;2964;42.144;24.730;2023-09-30T02:26:54;146160.03;;;18.50;73.72
5877;BME280;2964;42.144;24.730;2023-09-30T02:29:21;146141.03;;;18.42;73.12
5877;BME280;2964;42.144;24.730;2023-09-30T02:31:49;146130.94;;;18.38;73.23
5877;BME280;2964;42.144;24.730;2023-09-30T02:34:16;146123.34;;;18.35;74.36
5877;BME280;2964;42.144;24.730;2023-09-30T02:36:42;146110.75;;;18.30;74.35
5877;BME280;2964;42.144;24.730;2023-09-30T02:39:09;146096.84;;;18.24;74.49
5877;BME280;2964;42.144;24.730;2023-09-30T02:41:36;146086.69;;;18.20;75.30
5877;BME280;2964;42.144;24.730;2023-09-30T02:44:03;146069.06;;;18.13;75.52
5877;BME280;2964;42.144;24.730;2023-09-30T02:46:29;146053.88;;;18.07;74.60
5877;BME280;2964;42.144;24.730;2023-09-30T02:48:58;146091.78;;;18.22;74.01
5877;BME280;2964;42.144;24.730;2023-09-30T02:51:24;146051.38;;;18.06;74.98
5877;BME280;2964;42.144;24.730;2023-09-30T02:53:51;146050.06;;;18.05;75.42
5877;BME280;2964;42.144;24.730;2023-09-30T02:56:18;146042.53;;;18.02;75.67
5877;BME280;2964;42.144;24.730;2023-09-30T02:58:45;146019.78;;;17.93;76.18
5877;BME280;2964;42.144;24.730;2023-09-30T03:01:14;146010.94;;;17.89;75.24
5877;BME280;2964;42.144;24.730;2023-09-30T03:03:42;146008.38;;;17.88;76.25
5877;BME280;2964;42.144;24.730;2023-09-30T03:06:11;145960.38;;;17.69;76.44
5877;BME280;2964;42.144;24.730;2023-09-30T03:08:37;146003.34;;;17.86;76.96
5877;BME280;2964;42.144;24.730;2023-09-30T03:11:04;145990.66;;;17.81;76.38
5877;BME280;2964;42.144;24.730;2023-09-30T03:13:31;145967.91;;;17.72;75.86
5877;BME280;2964;42.144;24.730;2023-09-30T03:15:57;145970.47;;;17.73;76.16
5877;BME280;2964;42.144;24.730;2023-09-30T03:18:24;145972.97;;;17.74;75.66
5877;BME280;2964;42.144;24.730;2023-09-30T03:20:52;145957.81;;;17.68;75.21
5877;BME280;2964;42.144;24.730;2023-09-30T03:23:23;145956.56;;;17.67;76.02
5877;BME280;2964;42.144;24.730;2023-09-30T03:25:55;145947.72;;;17.64;75.88
5877;BME280;2964;42.144;24.730;2023-09-30T03:28:22;145950.22;;;17.65;76.79
5877;BME280;2964;42.144;24.730;2023-09-30T03:30:49;145945.19;;;17.63;76.75
5877;BME280;2964;42.144;24.730;2023-09-30T03:33:16;145935.09;;;17.59;76.86
5877;BME280;2964;42.144;24.730;2023-09-30T03:35:43;145933.84;;;17.58;77.31
5877;BME280;2964;42.144;24.730;2023-09-30T03:38:11;145921.22;;;17.53;77.16
5877;BME280;2964;42.144;24.730;2023-09-30T03:40:40;145909.81;;;17.48;77.62
5877;BME280;2964;42.144;24.730;2023-09-30T03:43:13;145904.78;;;17.46;77.12
5877;BME280;2964;42.144;24.730;2023-09-30T03:45:39;145899.72;;;17.44;77.38
5877;BME280;2964;42.144;24.730;2023-09-30T03:48:06;145882.03;;;17.37;77.30
5877;BME280;2964;42.144;24.730;2023-09-30T03:50:35;145893.44;;;17.42;77.18
5877;BME280;2964;42.144;24.730;2023-09-30T03:53:04;145873.19;;;17.33;77.35
5877;BME280;2964;42.144;24.730;2023-09-30T03:55:33;145879.53;;;17.36;77.71
5877;BME280;2964;42.144;24.730;2023-09-30T03:58:01;145873.19;;;17.33;77.23
5877;BME280;2964;42.144;24.730;2023-09-30T04:00:29;145913.63;;;17.50;76.57
5877;BME280;2964;42.144;24.730;2023-09-30T04:02:56;145907.31;;;17.47;76.79
5877;BME280;2964;42.144;24.730;2023-09-30T04:05:24;145884.59;;;17.38;77.16
5877;BME280;2964;42.144;24.730;2023-09-30T04:07:54;145861.88;;;17.29;78.03
5877;BME280;2964;42.144;24.730;2023-09-30T04:10:21;145879.53;;;17.36;77.81
5877;BME280;2964;42.144;24.730;2023-09-30T04:12:49;145864.38;;;17.30;77.54
5877;BME280;2964;42.144;24.730;2023-09-30T04:15:17;145850.47;;;17.24;77.47
5877;BME280;2964;42.144;24.730;2023-09-30T04:17:44;145860.63;;;17.28;77.10
5877;BME280;2964;42.144;24.730;2023-09-30T04:20:11;145796.19;;;17.02;76.23
5877;BME280;2964;42.144;24.730;2023-09-30T04:22:42;145849.22;;;17.24;75.99
5877;BME280;2964;42.144;24.730;2023-09-30T04:25:11;145837.88;;;17.19;76.68
5877;BME280;2964;42.144;24.730;2023-09-30T04:27:41;145831.53;;;17.16;76.64
5877;BME280;2964;42.144;24.730;2023-09-30T04:30:12;145864.38;;;17.30;73.47
5877;BME280;2964;42.144;24.730;2023-09-30T04:32:42;145990.66;;;17.81;72.62
5877;BME280;2964;42.144;24.730;2023-09-30T04:35:08;145930.03;;;17.56;73.97
5877;BME280;2964;42.144;24.730;2023-09-30T04:37:35;145899.72;;;17.44;75.30
5877;BME280;2964;42.144;24.730;2023-09-30T04:40:03;145904.78;;;17.46;75.40
5877;BME280;2964;42.144;24.730;2023-09-30T04:42:33;145945.19;;;17.63;74.04
5877;BME280;2964;42.144;24.730;2023-09-30T04:45:00;145917.41;;;17.51;74.48
5877;BME280;2964;42.144;24.730;2023-09-30T04:47:26;145932.53;;;17.58;74.33
5877;BME280;2964;42.144;24.730;2023-09-30T04:49:54;145952.78;;;17.66;73.61
5877;BME280;2964;42.144;24.730;2023-09-30T04:52:23;145902.28;;;17.45;73.99
5877;BME280;2964;42.144;24.730;2023-09-30T04:54:52;145899.72;;;17.44;73.54
5877;BME280;2964;42.144;24.730;2023-09-30T04:57:19;145854.28;;;17.26;74.81
5877;BME280;2964;42.144;24.730;2023-09-30T04:59:47;145892.19;;;17.41;74.42
5877;BME280;2964;42.144;24.730;2023-09-30T05:02:13;145918.66;;;17.52;73.64
5877;BME280;2964;42.144;24.730;2023-09-30T05:04:40;145906.06;;;17.47;73.76
5877;BME280;2964;42.144;24.730;2023-09-30T05:07:09;145859.31;;;17.28;74.74
5877;BME280;2964;42.144;24.730;2023-09-30T05:09:38;145869.47;;;17.32;75.41
5877;BME280;2964;42.144;24.730;2023-09-30T05:12:05;145871.94;;;17.33;76.00
5877;BME280;2964;42.144;24.730;2023-09-30T05:14:31;145922.44;;;17.53;75.56
5877;BME280;2964;42.144;24.730;2023-09-30T05:16:58;145904.78;;;17.46;75.77
5877;BME280;2964;42.144;24.730;2023-09-30T05:19:25;145951.53;;;17.65;74.70
5877;BME280;2964;42.144;24.730;2023-09-30T05:21:51;145981.81;;;17.78;74.44
5877;BME280;2964;42.144;24.730;2023-09-30T05:24:19;146000.78;;;17.85;73.74
5877;BME280;2964;42.144;24.730;2023-09-30T05:26:46;146056.41;;;18.08;72.42
5877;BME280;2964;42.144;24.730;2023-09-30T05:29:13;146101.91;;;18.26;71.48
5877;BME280;2964;42.144;24.730;2023-09-30T05:31:42;146065.25;;;18.11;71.42
5877;BME280;2964;42.144;24.730;2023-09-30T05:34:08;146039.97;;;18.01;72.45
5877;BME280;2964;42.144;24.730;2023-09-30T05:36:35;146089.25;;;18.21;72.50
5877;BME280;2964;42.144;24.730;2023-09-30T05:39:02;146028.63;;;17.97;72.98
5877;BME280;2964;42.144;24.730;2023-09-30T05:41:31;146080.41;;;18.18;71.12
5877;BME280;2964;42.144;24.730;2023-09-30T05:43:58;146215.63;;;18.73;70.27
5877;BME280;2964;42.144;24.730;2023-09-30T05:46:25;146297.84;;;19.06;68.68
5877;BME280;2964;42.144;24.730;2023-09-30T05:48:52;146252.31;;;18.87;69.12
5877;BME280;2964;42.144;24.730;2023-09-30T05:51:19;146256.13;;;18.89;69.46
5877;BME280;2964;42.144;24.730;2023-09-30T05:53:47;146339.53;;;19.23;68.03
5877;BME280;2964;42.144;24.730;2023-09-30T05:56:14;146354.69;;;19.29;68.40
5877;BME280;2964;42.144;24.730;2023-09-30T05:58:42;146497.69;;;19.87;66.57
5877;BME280;2964;42.144;24.730;2023-09-30T06:01:09;146587.50;;;20.23;64.09
5877;BME280;2964;42.144;24.730;2023-09-30T06:03:38;146720.44;;;20.77;62.41
5877;BME280;2964;42.144;24.730;2023-09-30T06:06:10;146729.28;;;20.81;62.47
5877;BME280;2964;42.144;24.730;2023-09-30T06:08:37;146673.56;;;20.58;63.63
5877;BME280;2964;42.144;24.730;2023-09-30T06:11:04;146714.06;;;20.75;63.51
5877;BME280;2964;42.144;24.730;2023-09-30T06:13:32;146695.09;;;20.67;63.66
5877;BME280;2964;42.144;24.730;2023-09-30T06:16:00;146778.66;;;21.01;62.69
5877;BME280;2964;42.144;24.730;2023-09-30T06:18:27;146755.88;;;20.92;63.16
5877;BME280;2964;42.144;24.730;2023-09-30T06:20:54;146800.16;;;21.10;62.50
5877;BME280;2964;42.144;24.730;2023-09-30T06:23:21;146802.72;;;21.11;63.17
5877;BME280;2964;42.144;24.730;2023-09-30T06:25:48;146839.44;;;21.26;63.09
5877;BME280;2964;42.144;24.730;2023-09-30T06:28:15;146726.75;;;20.80;62.80
5877;BME280;2964;42.144;24.730;2023-09-30T06:30:42;146878.69;;;21.42;60.67
5877;BME280;2964;42.144;24.730;2023-09-30T06:33:12;146942.06;;;21.67;60.22
5877;BME280;2964;42.144;24.730;2023-09-30T06:35:40;146942.06;;;21.67;59.04
5877;BME280;2964;42.144;24.730;2023-09-30T06:38:16;147029.47;;;22.03;57.46
5877;BME280;2964;42.144;24.730;2023-09-30T06:40:42;147072.50;;;22.20;56.43
5877;BME280;2964;42.144;24.730;2023-09-30T06:43:10;147134.66;;;22.45;53.95
5877;BME280;2964;42.144;24.730;2023-09-30T06:45:37;147134.66;;;22.45;53.82
5877;BME280;2964;42.144;24.730;2023-09-30T06:48:07;147198.03;;;22.71;52.60
5877;BME280;2964;42.144;24.730;2023-09-30T06:50:39;147209.41;;;22.75;51.93
5877;BME280;2964;42.144;24.730;2023-09-30T06:53:06;147165.09;;;22.58;51.53
5877;BME280;2964;42.144;24.730;2023-09-30T06:55:36;147271.56;;;23.01;50.80
5877;BME280;2964;42.144;24.730;2023-09-30T06:58:03;147261.41;;;22.97;50.77
5877;BME280;2964;42.144;24.730;2023-09-30T07:00:33;147289.34;;;23.08;50.13
5877;BME280;2964;42.144;24.730;2023-09-30T07:03:00;147370.50;;;23.41;49.30
5877;BME280;2964;42.144;24.730;2023-09-30T07:05:27;147383.16;;;23.46;49.25
5877;BME280;2964;42.144;24.730;2023-09-30T07:07:56;147418.66;;;23.60;48.63
5877;BME280;2964;42.144;24.730;2023-09-30T07:10:23;147515.09;;;23.99;48.17
5877;BME280;2964;42.144;24.730;2023-09-30T07:12:49;147564.59;;;24.19;46.68
5877;BME280;2964;42.144;24.730;2023-09-30T07:15:16;147512.59;;;23.98;47.10
5877;BME280;2964;42.144;24.730;2023-09-30T07:17:43;147781.66;;;25.07;44.87
5877;BME280;2964;42.144;24.730;2023-09-30T07:20:11;147692.78;;;24.71;45.44
5877;BME280;2964;42.144;24.730;2023-09-30T07:22:38;147735.97;;;24.89;44.46
5877;BME280;2964;42.144;24.730;2023-09-30T07:25:07;147799.44;;;25.14;43.70
5877;BME280;2964;42.144;24.730;2023-09-30T07:27:34;147852.78;;;25.36;42.84
5877;BME280;2964;42.144;24.730;2023-09-30T07:30:00;147857.91;;;25.38;43.02
5877;BME280;2964;42.144;24.730;2023-09-30T07:32:28;147874.38;;;25.45;43.60
5877;BME280;2964;42.144;24.730;2023-09-30T07:34:54;147913.75;;;25.60;42.92
5877;BME280;2964;42.144;24.730;2023-09-30T07:37:21;147979.78;;;25.87;42.91
5877;BME280;2964;42.144;24.730;2023-09-30T07:39:49;147984.84;;;25.89;42.43
5877;BME280;2964;42.144;24.730;2023-09-30T07:42:17;148099.22;;;26.35;40.76
5877;BME280;2964;42.144;24.730;2023-09-30T07:44:43;148106.88;;;26.38;40.52
5877;BME280;2964;42.144;24.730;2023-09-30T07:47:10;148251.78;;;26.97;39.96
5877;BME280;2964;42.144;24.730;2023-09-30T07:49:37;148399.28;;;27.57;38.85
5877;BME280;2964;42.144;24.730;2023-09-30T07:52:04;148585.03;;;28.32;38.22
5877;BME280;2964;42.144;24.730;2023-09-30T07:54:31;148647.38;;;28.57;36.64
5877;BME280;2964;42.144;24.730;2023-09-30T07:56:57;148712.31;;;28.83;35.43
5877;BME280;2964;42.144;24.730;2023-09-30T07:59:26;148607.94;;;28.41;36.28
5877;BME280;2964;42.144;24.730;2023-09-30T08:01:53;148453.97;;;27.79;37.36
5877;BME280;2964;42.144;24.730;2023-09-30T08:04:20;148440.00;;;27.73;37.42
5877;BME280;2964;42.144;24.730;2023-09-30T08:06:46;148441.25;;;27.73;37.56
5877;BME280;2964;42.144;24.730;2023-09-30T08:09:13;148386.56;;;27.51;37.96
5877;BME280;2964;42.144;24.730;2023-09-30T08:11:40;148325.56;;;27.27;37.91
5877;BME280;2964;42.144;24.730;2023-09-30T08:14:07;148277.19;;;27.07;39.35
5877;BME280;2964;42.144;24.730;2023-09-30T08:16:36;148378.97;;;27.48;38.88
5877;BME280;2964;42.144;24.730;2023-09-30T08:19:03;148428.53;;;27.68;37.64
5877;BME280;2964;42.144;24.730;2023-09-30T08:21:30;148555.75;;;28.20;37.73
5877;BME280;2964;42.144;24.730;2023-09-30T08:23:57;148638.47;;;28.53;37.17
5877;BME280;2964;42.144;24.730;2023-09-30T08:26:24;148653.78;;;28.59;35.87
5877;BME280;2964;42.144;24.730;2023-09-30T08:28:50;148714.84;;;28.84;35.94
5877;BME280;2964;42.144;24.730;2023-09-30T08:31:17;148774.66;;;29.08;34.80
5877;BME280;2964;42.144;24.730;2023-09-30T08:33:46;149047.19;;;30.18;33.04
5877;BME280;2964;42.144;24.730;2023-09-30T08:36:13;149314.78;;;31.26;31.06
5877;BME280;2964;42.144;24.730;2023-09-30T08:38:40;149402.78;;;31.61;29.62
5877;BME280;2964;42.144;24.730;2023-09-30T08:41:08;149446.13;;;31.79;28.39
5877;BME280;2964;42.144;24.730;2023-09-30T08:43:37;149268.94;;;31.07;28.78
5877;BME280;2964;42.144;24.730;2023-09-30T08:46:04;149725.50;;;32.91;27.07
5877;BME280;2964;42.144;24.730;2023-09-30T08:48:32;149739.53;;;32.97;26.09
5877;BME280;2964;42.144;24.730;2023-09-30T08:51:01;149768.84;;;33.08;25.82
5877;BME280;2964;42.144;24.730;2023-09-30T08:53:28;149915.66;;;33.68;26.04
5877;BME280;2964;42.144;24.730;2023-09-30T08:55:56;149683.41;;;32.74;26.39
5877;BME280;2964;42.144;24.730;2023-09-30T08:58:26;150128.88;;;34.53;24.59
5877;BME280;2964;42.144;24.730;2023-09-30T09:00:54;150597.88;;;36.42;22.47
5877;BME280;2964;42.144;24.730;2023-09-30T09:03:21;151191.44;;;38.80;19.56
5877;BME280;2964;42.144;24.730;2023-09-30T09:05:54;151611.50;;;40.48;18.68
5877;BME280;2964;42.144;24.730;2023-09-30T09:08:23;151706.34;;;40.86;18.40
5877;BME280;2964;42.144;24.730;2023-09-30T09:10:54;151496.22;;;40.02;19.51
5877;BME280;2964;42.144;24.730;2023-09-30T09:13:22;151934.44;;;41.78;17.07
5877;BME280;2964;42.144;24.730;2023-09-30T09:15:50;152037.06;;;42.19;16.30
5877;BME280;2964;42.144;24.730;2023-09-30T09:18:32;152237.09;;;42.99;17.02
5877;BME280;2964;42.144;24.730;2023-09-30T09:21:09;152439.81;;;43.80;16.18
5877;BME280;2964;42.144;24.730;2023-09-30T09:23:40;152461.63;;;43.89;16.31
5877;BME280;2964;42.144;24.730;2023-09-30T09:26:08;152334.59;;;43.38;16.11
5877;BME280;2964;42.144;24.730;2023-09-30T09:28:35;152529.69;;;44.16;15.40
5877;BME280;2964;42.144;24.730;2023-09-30T09:31:19;151865.22;;;41.50;16.81
5877;BME280;2964;42.144;24.730;2023-09-30T09:33:46;151479.59;;;39.95;18.10
5877;BME280;2964;42.144;24.730;2023-09-30T09:36:13;151837.03;;;41.39;17.03
5877;BME280;2964;42.144;24.730;2023-09-30T09:38:45;151970.34;;;41.92;16.31
5877;BME280;2964;42.144;24.730;2023-09-30T09:41:13;151867.78;;;41.51;16.94
5877;BME280;2964;42.144;24.730;2023-09-30T09:43:41;151990.88;;;42.00;17.40
5877;BME280;2964;42.144;24.730;2023-09-30T09:46:08;152112.72;;;42.49;16.59
5877;BME280;2964;42.144;24.730;2023-09-30T09:48:35;151810.13;;;41.28;16.21
5877;BME280;2964;42.144;24.730;2023-09-30T09:51:04;151880.63;;;41.56;16.27
5877;BME280;2964;42.144;24.730;2023-09-30T09:53:34;151872.91;;;41.53;16.42
5877;BME280;2964;42.144;24.730;2023-09-30T09:56:03;152153.72;;;42.66;15.46
5877;BME280;2964;42.144;24.730;2023-09-30T09:58:32;151658.91;;;40.67;16.07
5877;BME280;2964;42.144;24.730;2023-09-30T10:01:01;150750.00;;;37.03;19.02
5877;BME280;2964;42.144;24.730;2023-09-30T10:03:28;150293.72;;;35.20;20.62
5877;BME280;2964;42.144;24.730;2023-09-30T10:05:54;150030.53;;;34.14;22.49
5877;BME280;2964;42.144;24.730;2023-09-30T10:08:29;149670.66;;;32.69;22.99
5877;BME280;2964;42.144;24.730;2023-09-30T10:10:59;149314.78;;;31.26;24.64
5877;BME280;2964;42.144;24.730;2023-09-30T10:13:54;148936.38;;;29.73;25.18
5877;BME280;2964;42.144;24.730;2023-09-30T10:16:46;148931.25;;;29.71;27.81
5877;BME280;2964;42.144;24.730;2023-09-30T10:19:14;148819.25;;;29.26;28.07
5877;BME280;2964;42.144;24.730;2023-09-30T10:24:42;148837.06;;;29.33;28.49
5877;BME280;2964;42.144;24.730;2023-09-30T10:27:34;148824.34;;;29.28;27.86
5877;BME280;2964;42.144;24.730;2023-09-30T10:30:11;148763.22;;;29.03;29.06
5877;BME280;2964;42.144;24.730;2023-09-30T10:33:07;148760.66;;;29.02;28.94
5877;BME280;2964;42.144;24.730;2023-09-30T10:35:46;148597.72;;;28.37;27.19
5877;BME280;2964;42.144;24.730;2023-09-30T10:38:41;148602.84;;;28.39;28.12
5877;BME280;2964;42.144;24.730;2023-09-30T10:41:09;148577.38;;;28.28;28.92
5877;BME280;2964;42.144;24.730;2023-09-30T10:43:38;148579.94;;;28.29;29.35
5877;BME280;2964;42.144;24.730;2023-09-30T10:46:32;148562.13;;;28.22;29.07
5877;BME280;2964;42.144;24.730;2023-09-30T10:49:16;148559.56;;;28.21;29.86
5877;BME280;2964;42.144;24.730;2023-09-30T10:51:43;148596.47;;;28.36;29.92
5877;BME280;2964;42.144;24.730;2023-09-30T10:54:12;148564.66;;;28.23;29.48
5877;BME280;2964;42.144;24.730;2023-09-30T10:56:39;148541.75;;;28.14;28.79
5877;BME280;2964;42.144;24.730;2023-09-30T10:59:06;148482.00;;;27.90;28.78
5877;BME280;2964;42.144;24.730;2023-09-30T11:01:34;148503.63;;;27.99;28.88
5877;BME280;2964;42.144;24.730;2023-09-30T11:04:02;148490.91;;;27.94;29.13
5877;BME280;2964;42.144;24.730;2023-09-30T11:06:29;148417.09;;;27.64;28.17
5877;BME280;2964;42.144;24.730;2023-09-30T11:08:57;148401.84;;;27.58;28.86
5877;BME280;2964;42.144;24.730;2023-09-30T11:11:35;148422.19;;;27.66;29.56
5877;BME280;2964;42.144;24.730;2023-09-30T11:14:03;148431.09;;;27.69;29.66
5877;BME280;2964;42.144;24.730;2023-09-30T11:16:41;148447.63;;;27.76;29.72
5877;BME280;2964;42.144;24.730;2023-09-30T11:19:08;148455.22;;;27.79;29.14
5877;BME280;2964;42.144;24.730;2023-09-30T11:21:35;148452.72;;;27.78;29.49
5877;BME280;2964;42.144;24.730;2023-09-30T11:24:02;148431.09;;;27.69;29.54
5877;BME280;2964;42.144;24.730;2023-09-30T11:26:29;148433.66;;;27.70;28.58
5877;BME280;2964;42.144;24.730;2023-09-30T11:29:04;148442.56;;;27.74;28.45
5877;BME280;2964;42.144;24.730;2023-09-30T11:31:31;148452.72;;;27.78;29.29
5877;BME280;2964;42.144;24.730;2023-09-30T11:34:00;148409.44;;;27.61;28.54
5877;BME280;2964;42.144;24.730;2023-09-30T11:36:29;148447.63;;;27.76;29.16
5877;BME280;2964;42.144;24.730;2023-09-30T11:38:56;148373.91;;;27.46;28.15
5877;BME280;2964;42.144;24.730;2023-09-30T11:41:33;148343.38;;;27.34;28.79
5877;BME280;2964;42.144;24.730;2023-09-30T11:44:02;148300.06;;;27.16;28.64
5877;BME280;2964;42.144;24.730;2023-09-30T11:46:30;148356.09;;;27.39;28.99
5877;BME280;2964;42.144;24.730;2023-09-30T11:49:02;148381.50;;;27.49;28.07
5877;BME280;2964;42.144;24.730;2023-09-30T11:51:34;148414.53;;;27.63;30.08
5877;BME280;2964;42.144;24.730;2023-09-30T11:54:08;148390.38;;;27.53;28.59
5877;BME280;2964;42.144;24.730;2023-09-30T11:56:36;148403.13;;;27.58;30.60
5877;BME280;2964;42.144;24.730;2023-09-30T11:59:03;148396.78;;;27.56;28.19
5877;BME280;2964;42.144;24.730;2023-09-30T12:01:30;148414.53;;;27.63;28.37
5877;BME280;2964;42.144;24.730;2023-09-30T12:03:57;148422.19;;;27.66;30.08
5877;BME280;2964;42.144;24.730;2023-09-30T12:06:26;148410.75;;;27.61;28.04
5877;BME280;2964;42.144;24.730;2023-09-30T12:08:52;148368.75;;;27.44;28.15
5877;BME280;2964;42.144;24.730;2023-09-30T12:11:19;148363.69;;;27.42;28.90
5877;BME280;2964;42.144;24.730;2023-09-30T12:13:47;148434.91;;;27.71;30.76
5877;BME280;2964;42.144;24.730;2023-09-30T12:16:14;148433.66;;;27.70;29.34
5877;BME280;2964;42.144;24.730;2023-09-30T12:18:41;148441.25;;;27.73;31.74
5877;BME280;2964;42.144;24.730;2023-09-30T12:21:09;148443.81;;;27.75;32.20
5877;BME280;2964;42.144;24.730;2023-09-30T12:23:37;148437.41;;;27.72;31.92
5877;BME280;2964;42.144;24.730;2023-09-30T12:26:04;148436.16;;;27.71;31.16
5877;BME280;2964;42.144;24.730;2023-09-30T12:28:31;148381.50;;;27.49;30.73
5877;BME280;2964;42.144;24.730;2023-09-30T12:31:07;148389.13;;;27.52;29.89
5877;BME280;2964;42.144;24.730;2023-09-30T12:33:39;148427.25;;;27.68;33.14
5877;BME280;2964;42.144;24.730;2023-09-30T12:36:05;148401.84;;;27.58;30.49
5877;BME280;2964;42.144;24.730;2023-09-30T12:38:32;148368.75;;;27.44;28.97
5877;BME280;2964;42.144;24.730;2023-09-30T12:41:00;148339.53;;;27.32;30.86
5877;BME280;2964;42.144;24.730;2023-09-30T12:43:29;148404.38;;;27.59;31.45
5877;BME280;2964;42.144;24.730;2023-09-30T12:45:55;148431.09;;;27.69;30.31
5877;BME280;2964;42.144;24.730;2023-09-30T12:48:22;148437.41;;;27.72;30.23
5877;BME280;2964;42.144;24.730;2023-09-30T12:50:49;148422.19;;;27.66;31.49
5877;BME280;2964;42.144;24.730;2023-09-30T12:53:15;148426.00;;;27.67;30.92
5877;BME280;2964;42.144;24.730;2023-09-30T12:55:42;148414.53;;;27.63;30.06
5877;BME280;2964;42.144;24.730;2023-09-30T12:58:11;148432.34;;;27.70;29.99
5877;BME280;2964;42.144;24.730;2023-09-30T13:00:37;148371.31;;;27.45;30.78
5877;BME280;2964;42.144;24.730;2023-09-30T13:03:04;148418.34;;;27.64;30.17
5877;BME280;2964;42.144;24.730;2023-09-30T13:05:33;148427.25;;;27.68;30.76
5877;BME280;2964;42.144;24.730;2023-09-30T13:08:00;148389.13;;;27.52;29.41
5877;BME280;2964;42.144;24.730;2023-09-30T13:10:27;148415.84;;;27.63;30.61